Time;durP1;ratioP1;P1;durP2;ratioP2;P2;SDS_P1;SDS_P2;PMS_P1;PMS_P2;Temp;Humidity;BMP_temperature;BMP_pressure;BME280_temperature;BME280_humidity;BME280_pressure;Samples;Min_cycle;Max_cycle;Signal;HPM_P1;HPM_P2
2023/09/07 00:00:48;;;;;;;0.10;0.10;;;22.60;99.90;;;;;;5011880;28;20305;-80
2023/09/07 00:03:14;;;;;;;0.00;0.00;;;22.70;99.90;;;;;;5012170;28;20038;-81
2023/09/07 00:05:41;;;;;;;0.10;0.10;;;22.60;99.90;;;;;;5012738;28;20097;-80
2023/09/07 00:08:06;;;;;;;0.20;0.20;;;22.70;99.90;;;;;;5012932;28;20040;-81
2023/09/07 00:10:36;;;;;;;0.13;0.13;;;22.60;99.90;;;;;;5013030;28;20022;-80
2023/09/07 00:13:02;;;;;;;0.00;0.00;;;22.60;99.90;;;;;;5012854;28;20049;-79
2023/09/07 00:15:29;;;;;;;0.00;0.00;;;22.40;99.90;;;;;;4995446;28;20037;-80
2023/09/07 00:17:56;;;;;;;0.10;0.10;;;22.50;99.90;;;;;;5011411;28;20025;-78
2023/09/07 00:20:23;;;;;;;0.05;0.05;;;22.40;99.90;;;;;;5012693;28;20098;-79
2023/09/07 00:22:49;;;;;;;0.00;0.00;;;22.40;99.90;;;;;;5011619;28;20030;-80
2023/09/07 00:25:15;;;;;;;0.00;0.00;;;22.40;99.90;;;;;;5012900;28;20075;-80
2023/09/07 00:27:41;;;;;;;0.00;0.00;;;22.40;99.90;;;;;;5012243;28;20029;-80
2023/09/07 00:30:09;;;;;;;0.00;0.00;;;22.50;99.90;;;;;;5011513;28;20037;-81
2023/09/07 00:32:38;;;;;;;0.00;0.00;;;22.30;99.90;;;;;;5011378;28;20030;-81
2023/09/07 00:35:05;;;;;;;0.00;0.00;;;22.40;99.90;;;;;;4995184;28;20043;-81
2023/09/07 00:37:32;;;;;;;0.00;0.00;;;22.40;99.90;;;;;;5027579;28;20030;-81
2023/09/07 00:39:58;;;;;;;0.00;0.00;;;22.50;99.90;;;;;;5012462;28;20382;-81
2023/09/07 00:42:23;;;;;;;0.10;0.10;;;22.60;99.90;;;;;;5012293;28;20036;-79
2023/09/07 00:44:49;;;;;;;0.08;0.08;;;22.80;99.90;;;;;;5011163;28;20462;-78
2023/09/07 00:47:16;;;;;;;0.10;0.10;;;22.30;99.90;;;;;;5011190;28;20018;-81
2023/09/07 00:49:42;;;;;;;0.00;0.00;;;22.20;99.90;;;;;;5027575;28;20034;-81
2023/09/07 00:52:12;;;;;;;0.08;0.08;;;22.10;99.90;;;;;;5013461;28;20094;-81
2023/09/07 00:54:40;;;;;;;0.00;0.00;;;22.10;99.90;;;;;;5027664;28;20489;-80
2023/09/07 00:57:07;;;;;;;0.00;0.00;;;22.40;99.90;;;;;;5010582;28;20014;-81
2023/09/07 00:59:34;;;;;;;0.00;0.00;;;22.20;99.90;;;;;;5010377;28;20025;-80
2023/09/07 01:01:59;;;;;;;0.00;0.00;;;22.10;99.90;;;;;;5010339;28;20038;-81
2023/09/07 01:04:25;;;;;;;0.10;0.10;;;22.00;99.90;;;;;;5010789;28;20370;-78
2023/09/07 01:06:57;;;;;;;0.10;0.10;;;21.80;99.90;;;;;;5011966;28;20034;-81
2023/09/07 01:09:28;;;;;;;0.08;0.08;;;21.80;99.90;;;;;;5012094;28;20575;-80
2023/09/07 01:11:54;;;;;;;0.20;0.20;;;21.80;99.90;;;;;;5011636;28;20062;-79
2023/09/07 01:14:20;;;;;;;0.00;0.00;;;22.10;99.90;;;;;;5010814;28;20060;-81
2023/09/07 01:16:46;;;;;;;0.10;0.10;;;22.10;99.90;;;;;;5010687;28;20022;-80
2023/09/07 01:19:12;;;;;;;0.00;0.00;;;21.70;99.90;;;;;;4990643;28;20082;-80
2023/09/07 01:21:38;;;;;;;0.00;0.00;;;21.60;99.90;;;;;;5001617;28;20031;-81
2023/09/07 01:24:07;;;;;;;0.00;0.00;;;21.50;99.90;;;;;;4994400;28;20449;-81
2023/09/07 01:26:40;;;;;;;0.00;0.00;;;21.80;99.90;;;;;;5026834;28;20022;-81
2023/09/07 01:29:08;;;;;;;0.00;0.00;;;21.90;99.90;;;;;;4993933;28;20045;-84
2023/09/07 01:31:38;;;;;;;0.93;0.40;;;21.90;99.90;;;;;;5010402;28;20045;-81
2023/09/07 01:34:06;;;;;;;0.00;0.00;;;21.80;99.90;;;;;;5010486;28;20021;-81
2023/09/07 01:36:32;;;;;;;0.00;0.00;;;21.90;99.90;;;;;;4994121;28;20473;-81
2023/09/07 01:39:00;;;;;;;0.00;0.00;;;21.70;99.90;;;;;;5010056;28;20087;-81
2023/09/07 01:41:26;;;;;;;0.00;0.00;;;21.60;99.90;;;;;;5013638;28;20022;-81
2023/09/07 01:43:52;;;;;;;0.17;0.17;;;21.70;99.90;;;;;;5010256;28;20146;-81
2023/09/07 01:46:20;;;;;;;0.00;0.00;;;21.60;99.90;;;;;;5010046;28;20126;-81
2023/09/07 01:48:46;;;;;;;0.00;0.00;;;21.60;99.90;;;;;;5010113;28;20129;-81
2023/09/07 01:51:12;;;;;;;0.03;0.03;;;21.80;99.90;;;;;;5011552;28;20026;-80
2023/09/07 01:53:37;;;;;;;0.10;0.10;;;21.50;99.90;;;;;;5009634;28;20447;-81
2023/09/07 01:56:03;;;;;;;0.00;0.00;;;21.00;99.90;;;;;;5011326;28;20045;-81
2023/09/07 01:58:29;;;;;;;0.22;0.22;;;21.40;99.90;;;;;;5026250;28;20029;-81
2023/09/07 02:00:58;;;;;;;0.00;0.00;;;21.30;99.90;;;;;;5010058;28;20113;-81
2023/09/07 02:03:25;;;;;;;0.82;0.82;;;21.30;99.90;;;;;;5011256;28;20037;-80
2023/09/07 02:05:53;;;;;;;0.00;0.00;;;21.10;99.90;;;;;;5026508;28;20029;-81
2023/09/07 02:08:19;;;;;;;0.00;0.00;;;20.80;99.90;;;;;;5009563;28;20037;-80
2023/09/07 02:10:46;;;;;;;0.00;0.00;;;20.70;99.90;;;;;;5009775;28;20087;-81
2023/09/07 02:13:11;;;;;;;0.00;0.00;;;21.10;99.90;;;;;;5010975;28;20427;-80
2023/09/07 02:15:40;;;;;;;0.00;0.00;;;21.00;99.90;;;;;;5009796;28;20068;-81
2023/09/07 02:18:06;;;;;;;1.65;1.55;;;20.70;99.90;;;;;;5009880;28;20033;-81
2023/09/07 02:20:33;;;;;;;2.92;2.65;;;20.50;99.90;;;;;;4989631;28;20026;-81
2023/09/07 02:22:59;;;;;;;0.00;0.00;;;20.70;99.90;;;;;;5004362;28;20379;-80
2023/09/07 02:25:25;;;;;;;0.10;0.10;;;20.90;99.90;;;;;;5002306;28;20118;-81
2023/09/07 02:27:51;;;;;;;0.00;0.00;;;20.70;99.90;;;;;;5010105;28;20108;-81
2023/09/07 02:30:17;;;;;;;0.00;0.00;;;20.60;99.90;;;;;;5009270;28;20548;-81
2023/09/07 02:32:43;;;;;;;0.00;0.00;;;20.60;99.90;;;;;;5026132;28;20029;-80
2023/09/07 02:35:09;;;;;;;0.00;0.00;;;20.60;99.90;;;;;;5012249;28;20034;-81
2023/09/07 02:37:37;;;;;;;0.10;0.10;;;20.30;99.90;;;;;;5009139;28;20026;-79
2023/09/07 02:40:09;;;;;;;0.00;0.00;;;20.00;99.90;;;;;;5009226;28;20367;-81
2023/09/07 02:42:35;;;;;;;0.10;0.10;;;19.80;99.90;;;;;;4993314;28;20030;-81
2023/09/07 02:45:01;;;;;;;0.03;0.03;;;20.00;99.90;;;;;;5009117;28;20171;-81
2023/09/07 02:47:27;;;;;;;0.10;0.10;;;20.40;99.90;;;;;;4989958;28;20031;-81
2023/09/07 02:49:53;;;;;;;0.00;0.00;;;20.50;99.90;;;;;;5004647;28;20109;-80
2023/09/07 02:52:19;;;;;;;0.00;0.00;;;20.80;99.90;;;;;;5008742;28;20123;-80
2023/09/07 02:54:45;;;;;;;0.13;0.13;;;20.90;99.90;;;;;;5010513;28;20538;-81
2023/09/07 02:57:12;;;;;;;0.03;0.03;;;20.40;99.90;;;;;;4992837;28;20025;-80
2023/09/07 02:59:38;;;;;;;0.00;0.00;;;20.30;99.90;;;;;;5025230;28;20026;-81
2023/09/07 03:02:04;;;;;;;0.00;0.00;;;20.30;99.90;;;;;;5009380;28;20034;-80
2023/09/07 03:04:31;;;;;;;0.00;0.00;;;20.30;99.90;;;;;;4989531;28;20100;-81
2023/09/07 03:06:56;;;;;;;0.00;0.00;;;20.30;99.90;;;;;;5001752;28;20424;-81
2023/09/07 03:09:22;;;;;;;0.00;0.00;;;20.30;99.90;;;;;;5004366;28;20046;-80
2023/09/07 03:11:48;;;;;;;0.00;0.00;;;20.40;99.90;;;;;;4999570;28;20033;-81
2023/09/07 03:14:14;;;;;;;0.00;0.00;;;20.40;99.90;;;;;;5010280;28;20072;-81
2023/09/07 03:16:40;;;;;;;0.00;0.00;;;19.90;99.90;;;;;;5008899;28;20436;-79
2023/09/07 03:19:08;;;;;;;0.10;0.10;;;19.80;99.90;;;;;;5025304;28;20033;-81
2023/09/07 03:21:33;;;;;;;0.00;0.00;;;19.40;99.90;;;;;;5008510;28;20030;-81
2023/09/07 03:23:59;;;;;;;0.00;0.00;;;19.90;99.90;;;;;;5009182;28;20018;-80
2023/09/07 03:26:26;;;;;;;0.17;0.17;;;19.60;99.90;;;;;;4992404;28;20026;-81
2023/09/07 03:28:52;;;;;;;0.00;0.00;;;19.30;99.90;;;;;;5008741;28;20041;-80
2023/09/07 03:31:19;;;;;;;0.00;0.00;;;19.70;99.90;;;;;;5008792;28;20493;-80
2023/09/07 03:33:45;;;;;;;0.00;0.00;;;19.80;99.90;;;;;;5025161;28;20061;-81
2023/09/07 03:36:14;;;;;;;0.00;0.00;;;19.80;99.90;;;;;;5009505;28;20462;-80
2023/09/07 03:38:42;;;;;;;0.00;0.00;;;20.20;99.90;;;;;;5008632;28;20030;-81
2023/09/07 03:41:08;;;;;;;0.00;0.00;;;20.00;99.90;;;;;;5025117;28;20026;-81
2023/09/07 03:43:34;;;;;;;0.00;0.00;;;19.80;99.90;;;;;;5009752;28;20064;-80
2023/09/07 03:45:59;;;;;;;0.00;0.00;;;19.90;99.90;;;;;;5008406;28;20114;-81
2023/09/07 03:48:25;;;;;;;0.00;0.00;;;19.90;99.90;;;;;;5009590;28;20087;-80
2023/09/07 03:50:51;;;;;;;0.00;0.00;;;20.00;99.90;;;;;;5008332;28;20549;-81
2023/09/07 03:53:17;;;;;;;0.10;0.10;;;19.90;99.90;;;;;;5008399;28;20124;-81
2023/09/07 03:55:45;;;;;;;0.00;0.00;;;19.80;99.90;;;;;;5024833;28;20065;-78
2023/09/07 03:58:13;;;;;;;0.00;0.00;;;19.20;99.90;;;;;;5008352;28;20030;-80
2023/09/07 04:00:40;;;;;;;0.10;0.10;;;19.10;99.90;;;;;;5008129;28;20040;-81
2023/09/07 04:03:08;;;;;;;0.88;0.80;;;19.10;99.90;;;;;;5008533;28;20041;-81
2023/09/07 04:05:34;;;;;;;0.10;0.10;;;19.20;99.90;;;;;;5024578;28;20018;-79
2023/09/07 04:08:01;;;;;;;0.03;0.03;;;19.30;99.90;;;;;;5007993;28;20068;-81
2023/09/07 04:10:27;;;;;;;0.10;0.10;;;19.50;99.90;;;;;;5024670;28;20030;-81
2023/09/07 04:12:53;;;;;;;0.00;0.00;;;19.50;99.90;;;;;;5008153;28;20105;-81
2023/09/07 04:15:19;;;;;;;0.00;0.00;;;19.70;99.90;;;;;;5009724;28;20126;-81
2023/09/07 04:17:45;;;;;;;0.00;0.00;;;19.80;99.90;;;;;;5024373;28;20021;-82
2023/09/07 04:20:14;;;;;;;0.00;0.00;;;19.40;99.90;;;;;;5024475;28;20048;-81
2023/09/07 04:22:42;;;;;;;0.03;0.03;;;19.30;99.90;;;;;;4991499;28;20587;-81
2023/09/07 04:25:08;;;;;;;0.00;0.00;;;19.20;99.90;;;;;;5008105;28;20076;-81
2023/09/07 04:27:34;;;;;;;0.03;0.03;;;19.40;99.90;;;;;;5009119;28;20041;-80
2023/09/07 04:30:00;;;;;;;0.00;0.00;;;19.40;99.90;;;;;;5009329;28;20037;-81
2023/09/07 04:32:27;;;;;;;0.00;0.00;;;19.60;99.90;;;;;;5007748;28;20141;-81
2023/09/07 04:34:54;;;;;;;0.00;0.00;;;19.40;99.90;;;;;;5008994;28;20026;-81
2023/09/07 04:37:20;;;;;;;0.00;0.00;;;19.00;99.90;;;;;;5012511;28;20431;-81
2023/09/07 04:39:48;;;;;;;0.00;0.00;;;19.10;99.90;;;;;;5011314;28;20109;-80
2023/09/07 04:42:14;;;;;;;0.00;0.00;;;19.50;99.90;;;;;;5012558;28;20034;-83
2023/09/07 04:44:39;;;;;;;0.00;0.00;;;19.00;99.90;;;;;;5012292;28;20021;-81
2023/09/07 04:47:05;;;;;;;0.00;0.00;;;18.80;99.90;;;;;;5011266;28;20424;-81
2023/09/07 04:49:31;;;;;;;0.10;0.10;;;18.60;99.90;;;;;;5010796;28;20136;-81
2023/09/07 04:51:57;;;;;;;0.00;0.00;;;18.70;99.90;;;;;;5027685;28;20049;-81
2023/09/07 04:54:24;;;;;;;0.00;0.00;;;18.70;99.90;;;;;;5011594;28;20030;-81
2023/09/07 04:56:50;;;;;;;0.00;0.00;;;18.80;99.90;;;;;;5010873;28;20022;-80
2023/09/07 04:59:16;;;;;;;0.10;0.10;;;19.00;99.90;;;;;;5011004;28;20413;-83
2023/09/07 05:01:42;;;;;;;0.10;0.10;;;19.10;99.90;;;;;;4998391;28;20446;-81
2023/09/07 05:04:08;;;;;;;0.00;0.00;;;19.20;99.90;;;;;;4997426;28;20018;-81
2023/09/07 05:06:37;;;;;;;0.00;0.00;;;19.20;99.90;;;;;;5010790;28;20064;-81
2023/09/07 05:09:04;;;;;;;0.08;0.08;;;19.10;99.90;;;;;;5010646;28;20117;-81
2023/09/07 05:11:30;;;;;;;0.10;0.10;;;19.30;99.90;;;;;;5012446;28;20113;-81
2023/09/07 05:13:56;;;;;;;7.38;1.33;;;19.00;99.90;;;;;;4982223;28;20038;-81
2023/09/07 05:16:22;;;;;;;0.00;0.00;;;18.90;99.90;;;;;;5010857;28;20037;-81
2023/09/07 05:18:48;;;;;;;0.00;0.00;;;18.80;99.90;;;;;;5010987;28;20022;-81
2023/09/07 05:21:14;;;;;;;0.10;0.10;;;18.90;99.90;;;;;;5013309;28;20014;-82
2023/09/07 05:23:41;;;;;;;0.10;0.10;;;19.00;99.90;;;;;;5014563;28;20061;-81
2023/09/07 05:26:07;;;;;;;0.00;0.00;;;19.10;99.90;;;;;;5017017;28;20022;-81
2023/09/07 05:28:33;;;;;;;0.03;0.03;;;19.20;99.90;;;;;;5016252;28;20409;-81
2023/09/07 05:30:59;;;;;;;0.00;0.00;;;19.20;99.90;;;;;;5049888;28;20029;-73
2023/09/07 05:33:25;;;;;;;0.17;0.17;;;19.40;99.90;;;;;;5015876;28;20026;-75
2023/09/07 05:35:52;;;;;;;0.10;0.10;;;19.30;99.90;;;;;;5006920;28;20031;-76
2023/09/07 05:38:17;;;;;;;0.03;0.03;;;19.20;99.90;;;;;;5066582;28;20028;-76
2023/09/07 05:40:44;;;;;;;0.00;0.00;;;19.30;99.90;;;;;;5068204;28;20024;-76
2023/09/07 05:43:11;;;;;;;0.32;0.32;;;19.30;99.90;;;;;;5027473;28;20033;-76
2023/09/07 05:45:41;;;;;;;0.00;0.00;;;19.40;99.90;;;;;;5011580;28;20029;-75
2023/09/07 05:48:09;;;;;;;0.00;0.00;;;19.50;99.90;;;;;;5012204;28;20069;-75
2023/09/07 05:50:36;;;;;;;0.10;0.10;;;19.50;99.90;;;;;;5044551;28;20324;-75
2023/09/07 05:53:03;;;;;;;0.00;0.00;;;19.50;99.90;;;;;;5028099;28;20034;-74
2023/09/07 05:55:29;;;;;;;0.05;0.05;;;19.50;99.90;;;;;;5021236;28;20088;-75
2023/09/07 05:57:56;;;;;;;0.10;0.10;;;19.50;99.90;;;;;;5020530;28;20036;-76
2023/09/07 06:00:23;;;;;;;0.00;0.00;;;19.70;99.90;;;;;;5035806;28;20059;-75
2023/09/07 06:02:50;;;;;;;0.00;0.00;;;19.90;99.90;;;;;;5047118;28;20031;-75
2023/09/07 06:05:16;;;;;;;0.00;0.00;;;19.90;99.90;;;;;;5052535;28;20112;-76
2023/09/07 06:07:43;;;;;;;0.00;0.00;;;20.00;99.90;;;;;;5036139;28;20049;-76
2023/09/07 06:10:09;;;;;;;0.00;0.00;;;20.30;99.90;;;;;;5023266;28;20041;-75
2023/09/07 06:12:35;;;;;;;0.00;0.00;;;20.50;99.90;;;;;;5027714;28;20023;-76
2023/09/07 06:15:02;;;;;;;0.30;0.30;;;20.50;99.90;;;;;;5066489;28;20019;-76
2023/09/07 06:17:30;;;;;;;0.00;0.00;;;20.40;99.90;;;;;;5038010;28;20094;-75
2023/09/07 06:19:56;;;;;;;0.00;0.00;;;20.40;99.90;;;;;;5031630;28;20075;-76
2023/09/07 06:22:22;;;;;;;0.00;0.00;;;20.50;99.90;;;;;;5026029;28;20143;-75
2023/09/07 06:24:50;;;;;;;0.00;0.00;;;20.50;99.90;;;;;;5096711;28;20015;-77
2023/09/07 06:27:16;;;;;;;0.00;0.00;;;20.60;99.90;;;;;;5082586;28;20024;-76
2023/09/07 06:29:42;;;;;;;0.22;0.22;;;20.80;99.90;;;;;;5034810;28;20490;-76
2023/09/07 06:32:08;;;;;;;0.00;0.00;;;20.80;99.90;;;;;;5027224;28;20079;-76
2023/09/07 06:34:34;;;;;;;0.00;0.00;;;20.60;99.90;;;;;;5017093;28;20065;-75
2023/09/07 06:36:59;;;;;;;0.00;0.00;;;20.70;99.90;;;;;;5065839;28;20010;-77
2023/09/07 06:39:25;;;;;;;0.08;0.08;;;21.10;99.90;;;;;;5047776;28;20468;-75
2023/09/07 06:41:51;;;;;;;0.32;0.32;;;21.10;99.90;;;;;;5036163;28;20030;-75
2023/09/07 06:44:20;;;;;;;0.00;0.00;;;21.30;99.90;;;;;;5024191;28;20467;-75
2023/09/07 06:46:49;;;;;;;0.22;0.22;;;21.30;99.90;;;;;;5033581;28;20020;-76
2023/09/07 06:49:16;;;;;;;0.10;0.10;;;21.50;99.90;;;;;;5032515;28;20034;-83
2023/09/07 06:51:41;;;;;;;0.85;0.75;;;21.40;99.90;;;;;;4989419;28;20070;-83
2023/09/07 06:54:07;;;;;;;0.00;0.00;;;21.30;99.90;;;;;;5024799;28;20426;-83
2023/09/07 06:56:34;;;;;;;0.43;0.43;;;21.30;99.90;;;;;;5020616;28;20022;-84
2023/09/07 06:59:01;;;;;;;3.53;1.83;;;21.30;99.90;;;;;;5034691;28;20019;-84
2023/09/07 07:01:27;;;;;;;0.00;0.00;;;21.40;99.90;;;;;;5006626;28;20041;-74
2023/09/07 07:03:53;;;;;;;0.00;0.00;;;21.50;99.90;;;;;;5008991;28;20026;-75
2023/09/07 07:06:20;;;;;;;0.17;0.17;;;21.60;99.90;;;;;;5008623;28;20378;-74
2023/09/07 07:08:46;;;;;;;0.00;0.00;;;21.70;99.90;;;;;;5009443;28;20136;-92
2023/09/07 07:11:12;;;;;;;0.15;0.15;;;21.90;99.90;;;;;;5009077;28;20134;-70
2023/09/07 07:13:38;;;;;;;0.00;0.00;;;21.70;99.90;;;;;;5019014;28;20036;-73
2023/09/07 07:16:05;;;;;;;0.00;0.00;;;21.90;99.90;;;;;;5008394;28;20018;-74
2023/09/07 07:18:31;;;;;;;0.77;0.40;;;22.10;99.90;;;;;;5008405;28;20113;-74
2023/09/07 07:20:58;;;;;;;0.55;0.55;;;22.20;99.90;;;;;;5008670;28;20041;-73
2023/09/07 07:23:24;;;;;;;0.10;0.10;;;22.30;99.90;;;;;;5008912;28;20029;-73
2023/09/07 07:25:52;;;;;;;0.57;0.57;;;22.30;99.90;;;;;;4986295;28;20030;-74
2023/09/07 07:28:18;;;;;;;0.10;0.10;;;22.40;99.90;;;;;;5005472;28;20129;-73
2023/09/07 07:30:43;;;;;;;0.00;0.00;;;22.40;99.90;;;;;;5009910;28;20411;-74
2023/09/07 07:33:11;;;;;;;0.22;0.22;;;22.60;99.90;;;;;;4989075;28;20066;-74
2023/09/07 07:35:38;;;;;;;0.00;0.00;;;22.70;99.90;;;;;;5001108;28;20029;-73
2023/09/07 07:38:07;;;;;;;0.00;0.00;;;22.90;99.90;;;;;;5008343;28;20029;-74
2023/09/07 07:40:34;;;;;;;0.00;0.00;;;22.90;99.90;;;;;;4994602;28;20114;-73
2023/09/07 07:43:00;;;;;;;0.43;0.35;;;22.90;99.90;;;;;;5022597;28;20026;-73
2023/09/07 07:45:26;;;;;;;0.30;0.30;;;23.00;99.90;;;;;;5008339;28;20046;-74
2023/09/07 07:47:53;;;;;;;0.00;0.00;;;23.20;99.90;;;;;;5000083;28;20113;-73
2023/09/07 07:50:19;;;;;;;0.00;0.00;;;23.40;99.90;;;;;;5000235;28;20446;-73
2023/09/07 07:52:46;;;;;;;0.00;0.00;;;23.50;99.90;;;;;;5008535;28;20091;-73
2023/09/07 07:55:12;;;;;;;0.25;0.25;;;23.50;99.90;;;;;;5008258;28;20478;-73
2023/09/07 07:57:39;;;;;;;0.00;0.00;;;23.60;99.90;;;;;;5007723;28;20131;-73
2023/09/07 08:00:07;;;;;;;0.00;0.00;;;23.70;99.90;;;;;;5007302;28;20072;-74
2023/09/07 08:02:39;;;;;;;0.10;0.10;;;23.90;99.90;;;;;;4995483;28;20508;-74
2023/09/07 08:05:09;;;;;;;0.10;0.10;;;24.10;99.90;;;;;;5007923;28;20155;-73
2023/09/07 08:07:36;;;;;;;0.35;0.35;;;24.10;99.90;;;;;;5007794;28;20026;-73
2023/09/07 08:10:03;;;;;;;0.20;0.20;;;24.20;99.90;;;;;;5009552;28;20041;-75
2023/09/07 08:12:29;;;;;;;5.20;4.85;;;24.30;99.90;;;;;;5011229;28;20034;-74
2023/09/07 08:14:55;;;;;;;0.10;0.10;;;24.20;99.90;;;;;;5020325;28;20087;-78
2023/09/07 08:17:23;;;;;;;0.00;0.00;;;24.20;99.90;;;;;;4999224;28;20031;-73
2023/09/07 08:19:51;;;;;;;0.40;0.40;;;24.30;99.90;;;;;;5011502;28;20402;-73
2023/09/07 08:22:17;;;;;;;0.08;0.08;;;24.40;99.90;;;;;;5011366;28;20104;-73
2023/09/07 08:24:44;;;;;;;0.50;0.40;;;24.60;99.90;;;;;;5011296;28;20057;-74
2023/09/07 08:27:16;;;;;;;0.00;0.00;;;24.60;99.90;;;;;;5010927;28;20037;-73
2023/09/07 08:29:46;;;;;;;0.00;0.00;;;24.80;99.90;;;;;;4994480;28;20592;-74
2023/09/07 08:32:14;;;;;;;0.13;0.13;;;25.00;99.90;;;;;;5005614;28;20042;-73
2023/09/07 08:34:41;;;;;;;0.73;0.73;;;25.30;99.90;;;;;;5012357;28;20117;-74
2023/09/07 08:37:10;;;;;;;0.10;0.10;;;25.50;99.90;;;;;;5012238;28;20037;-73
2023/09/07 08:39:38;;;;;;;0.95;0.80;;;25.70;99.90;;;;;;5012080;28;20538;-73
2023/09/07 08:42:05;;;;;;;0.00;0.00;;;25.60;99.90;;;;;;5012445;28;20059;-73
2023/09/07 08:44:33;;;;;;;0.00;0.00;;;25.60;99.90;;;;;;5012280;28;20029;-73
2023/09/07 08:47:02;;;;;;;0.22;0.22;;;25.60;99.90;;;;;;5004399;28;20095;-74
2023/09/07 08:49:29;;;;;;;0.10;0.10;;;25.70;99.90;;;;;;5022464;28;20484;-73
2023/09/07 08:52:03;;;;;;;0.15;0.15;;;25.70;99.90;;;;;;5011957;28;20026;-74
2023/09/07 08:54:29;;;;;;;0.08;0.08;;;25.80;99.90;;;;;;5012016;28;20030;-74
2023/09/07 08:56:56;;;;;;;1.90;1.60;;;26.00;99.90;;;;;;5012209;28;20408;-73
2023/09/07 08:59:22;;;;;;;0.30;0.30;;;26.00;99.90;;;;;;5012059;28;20033;-74
2023/09/07 09:01:48;;;;;;;0.13;0.13;;;26.00;99.90;;;;;;5008824;28;20033;-73
2023/09/07 09:04:15;;;;;;;0.47;0.40;;;26.20;99.90;;;;;;5010966;28;20462;-73
2023/09/07 09:06:41;;;;;;;0.47;0.47;;;26.30;99.90;;;;;;5011005;28;20025;-73
2023/09/07 09:09:07;;;;;;;0.20;0.20;;;26.20;99.90;;;;;;5011282;28;20037;-74
2023/09/07 09:11:33;;;;;;;0.13;0.13;;;26.50;99.60;;;;;;5011047;28;20042;-73
2023/09/07 09:13:58;;;;;;;0.28;0.28;;;26.60;99.90;;;;;;5011782;28;20034;-74
2023/09/07 09:16:25;;;;;;;11.77;0.98;;;26.80;99.30;;;;;;5012097;28;20029;-73
2023/09/07 09:18:57;;;;;;;0.00;0.00;;;26.80;99.20;;;;;;5011899;28;20126;-74
2023/09/07 09:21:24;;;;;;;0.15;0.15;;;27.00;99.90;;;;;;5010879;28;20049;-75
2023/09/07 09:23:53;;;;;;;0.00;0.00;;;27.20;99.70;;;;;;5011571;28;20108;-72
2023/09/07 09:26:19;;;;;;;0.00;0.00;;;27.20;98.40;;;;;;4998527;28;20050;-73
2023/09/07 09:28:46;;;;;;;0.00;0.00;;;27.50;99.20;;;;;;5011885;28;20056;-74
2023/09/07 09:31:13;;;;;;;0.00;0.00;;;27.70;98.60;;;;;;5012130;28;20470;-74
2023/09/07 09:33:42;;;;;;;0.30;0.28;;;27.70;98.20;;;;;;5011505;28;20099;-73
2023/09/07 09:36:09;;;;;;;0.43;0.28;;;27.70;96.80;;;;;;5011634;28;20029;-72
2023/09/07 09:38:35;;;;;;;0.03;0.03;;;27.70;97.20;;;;;;5011349;28;20022;-74
2023/09/07 09:41:03;;;;;;;0.32;0.32;;;27.80;99.70;;;;;;5010410;28;20029;-74
2023/09/07 09:43:29;;;;;;;0.43;0.43;;;27.90;99.40;;;;;;5011574;28;20029;-74
2023/09/07 09:45:56;;;;;;;0.10;0.10;;;28.00;98.40;;;;;;5011671;28;20117;-74
2023/09/07 09:48:22;;;;;;;0.85;0.45;;;28.10;97.80;;;;;;5010043;28;20125;-74
2023/09/07 09:50:49;;;;;;;0.00;0.00;;;28.20;97.60;;;;;;5011586;28;20551;-74
2023/09/07 09:53:18;;;;;;;0.65;0.65;;;28.30;98.00;;;;;;5009817;28;20037;-74
2023/09/07 09:55:54;;;;;;;0.73;0.73;;;28.30;97.20;;;;;;5011276;28;20381;-73
2023/09/07 09:58:19;;;;;;;0.45;0.45;;;28.40;94.70;;;;;;5011195;28;20350;-74
2023/09/07 10:00:48;;;;;;;0.60;0.60;;;28.40;95.50;;;;;;5011281;28;20094;-74
2023/09/07 10:03:32;;;;;;;0.52;0.50;;;28.20;94.60;;;;;;5011329;28;20034;-74
2023/09/07 10:06:31;;;;;;;0.57;0.47;;;27.90;94.80;;;;;;5011319;28;20395;-74
2023/09/07 10:09:06;;;;;;;0.35;0.35;;;28.00;94.60;;;;;;4997652;28;20069;-74
2023/09/07 10:11:34;;;;;;;0.60;0.60;;;28.20;94.40;;;;;;5011268;28;20061;-73
2023/09/07 10:14:05;;;;;;;0.60;0.57;;;28.60;93.90;;;;;;5010969;28;20030;-74
2023/09/07 10:16:46;;;;;;;0.90;0.75;;;28.50;93.30;;;;;;5010931;28;20104;-75
2023/09/07 10:19:20;;;;;;;2.17;1.27;;;28.30;93.50;;;;;;5010955;28;20033;-74
2023/09/07 10:21:46;;;;;;;2.17;0.43;;;28.20;93.10;;;;;;5010945;28;20026;-75
2023/09/07 10:24:27;;;;;;;0.32;0.32;;;28.10;93.60;;;;;;5011120;28;20458;-75
2023/09/07 10:27:01;;;;;;;0.10;0.10;;;28.30;93.90;;;;;;5011251;28;20419;-74
2023/09/07 10:29:27;;;;;;;0.30;0.30;;;28.50;94.30;;;;;;5013336;28;20086;-74
2023/09/07 10:31:53;;;;;;;0.10;0.10;;;28.60;93.50;;;;;;5019285;28;20026;-74
2023/09/07 10:34:20;;;;;;;0.10;0.10;;;29.00;94.60;;;;;;5009295;28;20482;-73
2023/09/07 10:36:47;;;;;;;0.10;0.10;;;29.30;93.10;;;;;;5009859;28;20485;-74
2023/09/07 10:39:13;;;;;;;0.05;0.05;;;29.30;93.40;;;;;;5010164;28;20034;-74
2023/09/07 10:41:43;;;;;;;0.75;0.20;;;29.50;93.20;;;;;;5010402;28;20072;-75
2023/09/07 10:44:13;;;;;;;0.43;0.43;;;29.70;93.40;;;;;;5010689;28;20079;-74
2023/09/07 10:46:40;;;;;;;0.35;0.35;;;30.00;92.70;;;;;;5010067;28;20312;-74
2023/09/07 10:49:11;;;;;;;0.00;0.00;;;30.30;93.40;;;;;;5010659;28;20034;-74
2023/09/07 10:51:48;;;;;;;1.75;0.63;;;30.20;93.10;;;;;;5010110;28;20022;-75
2023/09/07 10:54:18;;;;;;;0.03;0.03;;;30.20;91.70;;;;;;5010456;28;20018;-74
2023/09/07 10:56:47;;;;;;;0.68;0.25;;;30.10;92.30;;;;;;5010417;28;20026;-74
2023/09/07 10:59:13;;;;;;;0.00;0.00;;;30.30;91.90;;;;;;5010281;28;20030;-74
2023/09/07 11:01:39;;;;;;;0.10;0.10;;;30.70;93.20;;;;;;5010239;28;20455;-75
2023/09/07 11:04:08;;;;;;;0.35;0.35;;;31.10;92.60;;;;;;5010272;28;20100;-74
2023/09/07 11:06:34;;;;;;;0.22;0.22;;;31.20;91.40;;;;;;5009610;28;20047;-75
2023/09/07 11:09:04;;;;;;;0.70;0.70;;;31.60;92.50;;;;;;5008894;28;20371;-73
2023/09/07 11:11:34;;;;;;;0.15;0.15;;;31.80;91.40;;;;;;5010440;28;20091;-74
2023/09/07 11:14:05;;;;;;;0.10;0.10;;;31.90;91.30;;;;;;5008970;28;20486;-74
2023/09/07 11:16:33;;;;;;;0.10;0.10;;;32.00;90.70;;;;;;5010093;28;20034;-75
2023/09/07 11:19:06;;;;;;;0.10;0.10;;;31.80;90.00;;;;;;5010099;28;20033;-74
2023/09/07 11:21:34;;;;;;;0.80;0.65;;;31.80;90.80;;;;;;5010044;28;20026;-74
2023/09/07 11:24:00;;;;;;;0.00;0.00;;;31.90;90.20;;;;;;5010085;28;20030;-75
2023/09/07 11:26:26;;;;;;;0.00;0.00;;;32.10;90.60;;;;;;5010095;28;20034;-75
2023/09/07 11:28:52;;;;;;;0.10;0.10;;;32.20;88.60;;;;;;5010247;28;20030;-75
2023/09/07 11:31:21;;;;;;;0.03;0.03;;;32.30;88.70;;;;;;5010455;28;20416;-74
2023/09/07 11:33:48;;;;;;;0.00;0.00;;;32.20;88.60;;;;;;5010188;28;20030;-74
2023/09/07 11:36:13;;;;;;;0.95;0.20;;;32.60;89.80;;;;;;5009798;28;20044;-74
2023/09/07 11:38:43;;;;;;;0.30;0.30;;;32.70;87.10;;;;;;5009822;28;20486;-76
2023/09/07 11:41:09;;;;;;;0.30;0.30;;;32.40;88.00;;;;;;5009855;28;20038;-74
2023/09/07 11:43:34;;;;;;;0.10;0.10;;;32.00;86.10;;;;;;5009961;28;20034;-79
2023/09/07 11:46:01;;;;;;;0.00;0.00;;;31.90;89.00;;;;;;5011635;28;20041;-76
2023/09/07 11:48:28;;;;;;;1.17;0.73;;;32.20;88.70;;;;;;5012772;28;20030;-75
2023/09/07 11:50:54;;;;;;;0.00;0.00;;;32.20;88.30;;;;;;5012217;28;20034;-75
2023/09/07 11:53:20;;;;;;;3.83;0.45;;;32.90;86.70;;;;;;5013409;28;20106;-75
2023/09/07 11:55:45;;;;;;;5.72;0.68;;;33.10;86.00;;;;;;5013098;28;20057;-80
2023/09/07 11:58:12;;;;;;;8.85;0.50;;;32.90;87.60;;;;;;5013239;28;20025;-81
2023/09/07 12:00:37;;;;;;;0.40;0.35;;;33.00;85.10;;;;;;5012874;28;20109;-81
2023/09/07 12:03:03;;;;;;;3.30;1.27;;;32.70;84.90;;;;;;5012511;28;20156;-81
2023/09/07 12:05:30;;;;;;;0.40;0.40;;;32.90;85.10;;;;;;5012953;28;20171;-81
2023/09/07 12:07:56;;;;;;;0.35;0.30;;;32.40;85.00;;;;;;5013092;28;20112;-81
2023/09/07 12:10:22;;;;;;;2.13;0.77;;;33.20;85.30;;;;;;5017794;28;20114;-80
2023/09/07 12:12:47;;;;;;;0.00;0.00;;;33.30;84.60;;;;;;5061224;28;20030;-80
2023/09/07 12:15:13;;;;;;;0.95;0.20;;;33.40;84.30;;;;;;5050216;28;20026;-80
2023/09/07 12:17:40;;;;;;;0.57;0.57;;;34.00;84.10;;;;;;5014588;28;20120;-81
2023/09/07 12:20:10;;;;;;;0.65;0.50;;;33.90;82.10;;;;;;5024047;28;20093;-81
2023/09/07 12:22:39;;;;;;;0.10;0.10;;;34.20;81.80;;;;;;5059822;28;20030;-82
2023/09/07 12:25:09;;;;;;;3.72;1.30;;;33.90;82.40;;;;;;5048642;28;20045;-81
2023/09/07 12:27:34;;;;;;;1.15;0.50;;;34.10;80.80;;;;;;5037393;28;20033;-81
2023/09/07 12:30:02;;;;;;;0.10;0.10;;;33.90;80.10;;;;;;5031012;28;20038;-81
2023/09/07 12:32:28;;;;;;;1.48;1.08;;;34.20;79.80;;;;;;5008755;28;20111;-82
2023/09/07 12:34:53;;;;;;;0.25;0.25;;;33.90;78.90;;;;;;5055385;28;20017;-81
2023/09/07 12:37:23;;;;;;;0.25;0.25;;;33.80;82.70;;;;;;5053364;28;20114;-82
2023/09/07 12:39:49;;;;;;;0.55;0.47;;;34.70;79.60;;;;;;5018846;28;20551;-82
2023/09/07 12:42:16;;;;;;;0.20;0.13;;;35.10;78.90;;;;;;5026909;28;20432;-81
2023/09/07 12:44:42;;;;;;;0.57;0.40;;;35.80;77.60;;;;;;5015098;28;20129;-81
2023/09/07 12:47:07;;;;;;;0.25;0.25;;;35.30;76.10;;;;;;5054583;28;20517;-82